sensor_id;sensor_type;location;lat;lon;timestamp;pressure;altitude;pressure_sealevel;temperature;humidity
20696;BME280;10507;52.754;13.040;2023-03-31T00:01:11;100032.72;;;10.19;100.00
20696;BME280;10507;52.754;13.040;2023-03-31T00:03:40;100028.44;;;10.16;100.00
20696;BME280;10507;52.754;13.040;2023-03-31T00:06:11;100044.25;;;10.19;100.00
20696;BME280;10507;52.754;13.040;2023-03-31T00:08:45;100031.94;;;10.17;100.00
20696;BME280;10507;52.754;13.040;2023-03-31T00:11:18;100043.47;;;10.17;100.00
20696;BME280;10507;52.754;13.040;2023-03-31T00:13:46;100040.72;;;10.19;100.00
20696;BME280;10507;52.754;13.040;2023-03-31T00:16:14;100016.22;;;10.12;100.00
20696;BME280;10507;52.754;13.040;2023-03-31T00:18:43;100010.13;;;10.10;100.00
20696;BME280;10507;52.754;13.040;2023-03-31T00:21:14;100034.03;;;10.12;100.00
20696;BME280;10507;52.754;13.040;2023-03-31T00:23:52;100034.97;;;10.11;100.00
20696;BME280;10507;52.754;13.040;2023-03-31T00:26:21;100026.03;;;10.12;100.00
20696;BME280;10507;52.754;13.040;2023-03-31T00:28:49;100034.03;;;10.12;100.00
20696;BME280;10507;52.754;13.040;2023-03-31T00:31:18;100053.47;;;10.14;100.00
20696;BME280;10507;52.754;13.040;2023-03-31T00:33:47;100064.16;;;10.14;100.00
20696;BME280;10507;52.754;13.040;2023-03-31T00:36:15;100049.00;;;10.14;100.00
20696;BME280;10507;52.754;13.040;2023-03-31T00:38:47;100045.38;;;10.15;100.00
20696;BME280;10507;52.754;13.040;2023-03-31T00:41:15;100056.72;;;10.19;100.00
20696;BME280;10507;52.754;13.040;2023-03-31T00:44:01;100046.00;;;10.20;100.00
20696;BME280;10507;52.754;13.040;2023-03-31T00:46:33;100044.94;;;10.23;100.00
20696;BME280;10507;52.754;13.040;2023-03-31T00:49:03;100056.38;;;10.25;100.00
20696;BME280;10507;52.754;13.040;2023-03-31T00:51:32;100030.63;;;10.24;100.00
20696;BME280;10507;52.754;13.040;2023-03-31T00:54:05;100045.53;;;10.28;100.00
20696;BME280;10507;52.754;13.040;2023-03-31T00:56:36;100030.31;;;10.30;100.00
20696;BME280;10507;52.754;13.040;2023-03-31T00:59:08;100029.47;;;10.30;100.00
20696;BME280;10507;52.754;13.040;2023-03-31T01:01:39;100026.59;;;10.33;100.00
20696;BME280;10507;52.754;13.040;2023-03-31T01:04:12;99983.25;;;10.29;100.00
20696;BME280;10507;52.754;13.040;2023-03-31T01:06:49;99969.13;;;10.27;100.00
20696;BME280;10507;52.754;13.040;2023-03-31T01:09:23;99956.72;;;10.26;100.00
20696;BME280;10507;52.754;13.040;2023-03-31T01:11:51;99933.66;;;10.25;100.00
20696;BME280;10507;52.754;13.040;2023-03-31T01:14:20;99922.50;;;10.18;100.00
20696;BME280;10507;52.754;13.040;2023-03-31T01:16:47;99924.59;;;10.13;100.00
20696;BME280;10507;52.754;13.040;2023-03-31T01:19:26;99937.16;;;10.11;100.00
20696;BME280;10507;52.754;13.040;2023-03-31T01:25:09;99919.69;;;10.06;100.00
20696;BME280;10507;52.754;13.040;2023-03-31T01:28:17;99918.28;;;10.00;100.00
20696;BME280;10507;52.754;13.040;2023-03-31T01:31:23;99931.13;;;9.93;100.00
20696;BME280;10507;52.754;13.040;2023-03-31T01:34:16;99952.44;;;9.93;100.00
20696;BME280;10507;52.754;13.040;2023-03-31T01:40:12;99961.66;;;9.88;100.00
20696;BME280;10507;52.754;13.040;2023-03-31T01:42:49;99936.97;;;9.84;100.00
20696;BME280;10507;52.754;13.040;2023-03-31T01:45:26;99927.44;;;9.80;100.00
20696;BME280;10507;52.754;13.040;2023-03-31T01:48:03;99913.50;;;9.75;100.00
20696;BME280;10507;52.754;13.040;2023-03-31T01:50:37;99897.13;;;9.67;100.00
20696;BME280;10507;52.754;13.040;2023-03-31T01:53:15;99902.81;;;9.61;100.00
20696;BME280;10507;52.754;13.040;2023-03-31T01:55:51;99918.78;;;9.61;100.00
20696;BME280;10507;52.754;13.040;2023-03-31T01:58:24;99894.66;;;9.48;100.00
20696;BME280;10507;52.754;13.040;2023-03-31T02:00:58;99896.03;;;9.39;100.00
20696;BME280;10507;52.754;13.040;2023-03-31T02:03:29;99909.72;;;9.33;100.00
20696;BME280;10507;52.754;13.040;2023-03-31T02:06:04;99927.50;;;9.32;100.00
20696;BME280;10507;52.754;13.040;2023-03-31T02:08:37;99935.75;;;9.28;100.00
20696;BME280;10507;52.754;13.040;2023-03-31T02:11:09;99932.66;;;9.20;100.00
20696;BME280;10507;52.754;13.040;2023-03-31T02:13:38;99938.31;;;9.13;100.00
20696;BME280;10507;52.754;13.040;2023-03-31T02:16:11;99930.78;;;9.06;100.00
20696;BME280;10507;52.754;13.040;2023-03-31T02:18:43;99962.03;;;9.02;100.00
20696;BME280;10507;52.754;13.040;2023-03-31T02:21:14;99983.06;;;9.07;100.00
20696;BME280;10507;52.754;13.040;2023-03-31T02:23:43;99972.59;;;9.04;100.00
20696;BME280;10507;52.754;13.040;2023-03-31T02:26:16;100002.75;;;9.04;100.00
20696;BME280;10507;52.754;13.040;2023-03-31T02:28:45;100014.97;;;9.08;100.00
20696;BME280;10507;52.754;13.040;2023-03-31T02:31:22;100011.34;;;9.09;100.00
20696;BME280;10507;52.754;13.040;2023-03-31T02:33:53;100001.78;;;9.05;100.00
20696;BME280;10507;52.754;13.040;2023-03-31T02:36:22;99996.66;;;9.02;100.00
20696;BME280;10507;52.754;13.040;2023-03-31T02:38:53;99991.38;;;9.01;100.00
20696;BME280;10507;52.754;13.040;2023-03-31T02:41:24;99988.13;;;8.95;100.00
20696;BME280;10507;52.754;13.040;2023-03-31T02:43:52;99983.91;;;8.91;100.00
20696;BME280;10507;52.754;13.040;2023-03-31T02:46:20;99988.56;;;8.88;100.00
20696;BME280;10507;52.754;13.040;2023-03-31T02:48:50;99995.75;;;8.86;100.00
20696;BME280;10507;52.754;13.040;2023-03-31T02:54:42;100045.31;;;8.88;100.00
20696;BME280;10507;52.754;13.040;2023-03-31T02:57:20;100069.69;;;8.97;100.00
20696;BME280;10507;52.754;13.040;2023-03-31T03:00:01;100085.22;;;9.06;100.00
20696;BME280;10507;52.754;13.040;2023-03-31T03:02:41;100078.69;;;9.11;100.00
20696;BME280;10507;52.754;13.040;2023-03-31T03:05:20;100085.25;;;9.22;100.00
20696;BME280;10507;52.754;13.040;2023-03-31T03:07:57;100077.03;;;9.26;100.00
20696;BME280;10507;52.754;13.040;2023-03-31T03:10:32;100066.97;;;9.31;100.00
20696;BME280;10507;52.754;13.040;2023-03-31T03:13:08;100059.50;;;9.38;100.00
20696;BME280;10507;52.754;13.040;2023-03-31T03:15:46;100038.78;;;9.43;100.00
20696;BME280;10507;52.754;13.040;2023-03-31T03:18:14;100025.22;;;9.48;100.00
20696;BME280;10507;52.754;13.040;2023-03-31T03:20:43;100024.63;;;9.58;100.00
20696;BME280;10507;52.754;13.040;2023-03-31T03:23:14;100000.44;;;9.62;100.00
20696;BME280;10507;52.754;13.040;2023-03-31T03:25:43;99993.22;;;9.64;100.00
20696;BME280;10507;52.754;13.040;2023-03-31T03:28:12;99981.44;;;9.68;100.00
20696;BME280;10507;52.754;13.040;2023-03-31T03:30:40;99980.34;;;9.72;100.00
20696;BME280;10507;52.754;13.040;2023-03-31T03:33:08;99973.88;;;9.76;100.00
20696;BME280;10507;52.754;13.040;2023-03-31T03:35:36;99956.94;;;9.77;100.00
20696;BME280;10507;52.754;13.040;2023-03-31T03:38:04;99960.22;;;9.82;100.00
20696;BME280;10507;52.754;13.040;2023-03-31T03:40:32;99960.94;;;9.84;100.00
20696;BME280;10507;52.754;13.040;2023-03-31T03:43:00;99951.06;;;9.86;100.00
20696;BME280;10507;52.754;13.040;2023-03-31T03:45:29;99957.00;;;9.91;100.00
20696;BME280;10507;52.754;13.040;2023-03-31T03:47:57;99945.28;;;9.94;100.00
20696;BME280;10507;52.754;13.040;2023-03-31T03:50:25;99935.47;;;9.94;100.00
20696;BME280;10507;52.754;13.040;2023-03-31T03:52:52;99930.16;;;9.94;100.00
20696;BME280;10507;52.754;13.040;2023-03-31T03:55:20;99915.13;;;9.93;100.00
20696;BME280;10507;52.754;13.040;2023-03-31T03:57:48;99924.63;;;9.97;100.00
20696;BME280;10507;52.754;13.040;2023-03-31T04:00:17;99894.56;;;9.95;100.00
20696;BME280;10507;52.754;13.040;2023-03-31T04:02:46;99878.56;;;9.95;100.00
20696;BME280;10507;52.754;13.040;2023-03-31T04:05:14;99871.47;;;9.94;100.00
20696;BME280;10507;52.754;13.040;2023-03-31T04:07:42;99864.34;;;9.95;100.00
20696;BME280;10507;52.754;13.040;2023-03-31T04:10:10;99868.81;;;9.94;100.00
20696;BME280;10507;52.754;13.040;2023-03-31T04:12:38;99855.56;;;9.93;100.00
20696;BME280;10507;52.754;13.040;2023-03-31T04:15:06;99846.91;;;9.89;100.00
20696;BME280;10507;52.754;13.040;2023-03-31T04:17:34;99844.13;;;9.91;100.00
20696;BME280;10507;52.754;13.040;2023-03-31T04:20:06;99835.47;;;9.87;100.00
20696;BME280;10507;52.754;13.040;2023-03-31T04:22:36;99849.47;;;9.91;100.00
20696;BME280;10507;52.754;13.040;2023-03-31T04:25:08;99844.25;;;9.89;100.00
20696;BME280;10507;52.754;13.040;2023-03-31T04:27:41;99844.25;;;9.89;100.00
20696;BME280;10507;52.754;13.040;2023-03-31T04:30:13;99868.06;;;9.92;100.00
20696;BME280;10507;52.754;13.040;2023-03-31T04:32:49;99860.81;;;9.94;100.00
20696;BME280;10507;52.754;13.040;2023-03-31T04:35:20;99829.78;;;9.93;100.00
20696;BME280;10507;52.754;13.040;2023-03-31T04:37:50;99825.59;;;9.89;100.00
20696;BME280;10507;52.754;13.040;2023-03-31T04:40:24;99827.19;;;9.92;100.00
20696;BME280;10507;52.754;13.040;2023-03-31T04:42:51;99807.09;;;9.86;100.00
20696;BME280;10507;52.754;13.040;2023-03-31T04:45:19;99797.59;;;9.82;100.00
20696;BME280;10507;52.754;13.040;2023-03-31T04:47:47;99812.81;;;9.80;100.00
20696;BME280;10507;52.754;13.040;2023-03-31T04:50:15;99820.97;;;9.77;100.00
20696;BME280;10507;52.754;13.040;2023-03-31T04:52:45;99829.84;;;9.77;100.00
20696;BME280;10507;52.754;13.040;2023-03-31T04:55:12;99850.41;;;9.75;100.00
20696;BME280;10507;52.754;13.040;2023-03-31T04:57:40;99839.06;;;9.72;100.00
20696;BME280;10507;52.754;13.040;2023-03-31T05:00:09;99829.44;;;9.69;100.00
20696;BME280;10507;52.754;13.040;2023-03-31T05:02:37;99827.72;;;9.68;100.00
20696;BME280;10507;52.754;13.040;2023-03-31T05:05:06;99818.22;;;9.64;100.00
20696;BME280;10507;52.754;13.040;2023-03-31T05:07:34;99820.94;;;9.63;100.00
20696;BME280;10507;52.754;13.040;2023-03-31T05:10:04;99824.66;;;9.60;100.00
20696;BME280;10507;52.754;13.040;2023-03-31T05:12:33;99816.75;;;9.58;100.00
20696;BME280;10507;52.754;13.040;2023-03-31T05:15:01;99811.41;;;9.58;100.00
20696;BME280;10507;52.754;13.040;2023-03-31T05:17:30;99841.50;;;9.61;100.00
20696;BME280;10507;52.754;13.040;2023-03-31T05:19:59;99839.41;;;9.66;100.00
20696;BME280;10507;52.754;13.040;2023-03-31T05:22:27;99822.78;;;9.62;100.00
20696;BME280;10507;52.754;13.040;2023-03-31T05:24:55;99778.75;;;9.55;100.00
20696;BME280;10507;52.754;13.040;2023-03-31T05:27:24;99782.47;;;9.52;100.00
20696;BME280;10507;52.754;13.040;2023-03-31T05:29:51;99785.31;;;9.49;100.00
20696;BME280;10507;52.754;13.040;2023-03-31T05:32:19;99802.34;;;9.47;100.00
20696;BME280;10507;52.754;13.040;2023-03-31T05:34:47;99872.09;;;9.69;100.00
20696;BME280;10507;52.754;13.040;2023-03-31T05:37:19;99917.03;;;10.06;100.00
20696;BME280;10507;52.754;13.040;2023-03-31T05:39:46;99897.13;;;10.42;100.00
20696;BME280;10507;52.754;13.040;2023-03-31T05:42:14;99837.44;;;10.57;100.00
20696;BME280;10507;52.754;13.040;2023-03-31T05:44:43;99728.00;;;10.57;100.00
20696;BME280;10507;52.754;13.040;2023-03-31T05:47:12;99646.88;;;10.32;100.00
20696;BME280;10507;52.754;13.040;2023-03-31T05:49:39;99689.34;;;10.35;100.00
20696;BME280;10507;52.754;13.040;2023-03-31T05:52:08;99720.00;;;10.57;100.00
20696;BME280;10507;52.754;13.040;2023-03-31T05:54:36;99732.13;;;10.90;100.00
20696;BME280;10507;52.754;13.040;2023-03-31T05:57:04;99694.09;;;10.99;100.00
20696;BME280;10507;52.754;13.040;2023-03-31T05:59:32;99763.03;;;11.47;100.00
20696;BME280;10507;52.754;13.040;2023-03-31T06:02:02;99677.38;;;11.74;98.98
20696;BME280;10507;52.754;13.040;2023-03-31T06:04:30;99649.91;;;11.97;97.86
20696;BME280;10507;52.754;13.040;2023-03-31T06:06:59;99552.63;;;12.22;96.45
20696;BME280;10507;52.754;13.040;2023-03-31T06:09:27;99356.25;;;11.77;96.61
20696;BME280;10507;52.754;13.040;2023-03-31T06:11:55;99427.22;;;11.70;96.82
20696;BME280;10507;52.754;13.040;2023-03-31T06:14:22;99400.53;;;11.57;97.46
20696;BME280;10507;52.754;13.040;2023-03-31T06:16:50;99403.28;;;11.44;97.61
20696;BME280;10507;52.754;13.040;2023-03-31T06:19:21;99418.50;;;11.31;98.34
20696;BME280;10507;52.754;13.040;2023-03-31T06:21:50;99470.13;;;11.31;98.96
20696;BME280;10507;52.754;13.040;2023-03-31T06:24:18;99532.97;;;11.37;99.73
20696;BME280;10507;52.754;13.040;2023-03-31T06:26:45;99528.13;;;11.42;99.52
20696;BME280;10507;52.754;13.040;2023-03-31T06:29:13;99518.38;;;11.54;98.96
20696;BME280;10507;52.754;13.040;2023-03-31T06:31:41;99480.00;;;11.55;98.78
20696;BME280;10507;52.754;13.040;2023-03-31T06:34:09;99521.31;;;11.75;98.77
20696;BME280;10507;52.754;13.040;2023-03-31T06:36:38;99458.41;;;11.82;97.78
20696;BME280;10507;52.754;13.040;2023-03-31T06:39:06;99624.03;;;12.46;97.14
20696;BME280;10507;52.754;13.040;2023-03-31T06:41:34;99627.53;;;13.06;94.68
20696;BME280;10507;52.754;13.040;2023-03-31T06:44:04;99602.66;;;13.73;92.67
20696;BME280;10507;52.754;13.040;2023-03-31T06:46:32;99486.63;;;13.92;90.81
20696;BME280;10507;52.754;13.040;2023-03-31T06:48:59;99383.72;;;13.93;89.42
20696;BME280;10507;52.754;13.040;2023-03-31T06:51:27;99387.13;;;14.16;88.46
20696;BME280;10507;52.754;13.040;2023-03-31T06:53:59;99219.25;;;13.81;88.70
20696;BME280;10507;52.754;13.040;2023-03-31T06:56:27;99169.91;;;13.42;89.52
20696;BME280;10507;52.754;13.040;2023-03-31T06:58:55;99230.06;;;13.49;89.62
20696;BME280;10507;52.754;13.040;2023-03-31T07:01:22;99466.34;;;14.10;89.94
20696;BME280;10507;52.754;13.040;2023-03-31T07:03:51;99399.34;;;14.72;87.60
20696;BME280;10507;52.754;13.040;2023-03-31T07:06:18;99248.88;;;14.62;86.72
20696;BME280;10507;52.754;13.040;2023-03-31T07:08:46;99192.25;;;14.44;86.90
20696;BME280;10507;52.754;13.040;2023-03-31T07:11:15;98930.78;;;13.67;87.55
20696;BME280;10507;52.754;13.040;2023-03-31T07:13:46;99028.69;;;13.21;89.87
20696;BME280;10507;52.754;13.040;2023-03-31T07:16:14;99080.84;;;12.96;92.04
20696;BME280;10507;52.754;13.040;2023-03-31T07:18:42;99208.88;;;13.14;91.88
20696;BME280;10507;52.754;13.040;2023-03-31T07:21:10;99152.19;;;13.18;91.13
20696;BME280;10507;52.754;13.040;2023-03-31T07:23:38;99200.75;;;13.36;91.01
20696;BME280;10507;52.754;13.040;2023-03-31T07:26:06;99222.38;;;13.65;90.46
20696;BME280;10507;52.754;13.040;2023-03-31T07:28:36;99178.50;;;13.66;90.47
20696;BME280;10507;52.754;13.040;2023-03-31T07:31:10;99192.75;;;13.88;89.87
20696;BME280;10507;52.754;13.040;2023-03-31T07:33:38;99650.25;;;14.60;96.19
20696;BME280;10507;52.754;13.040;2023-03-31T07:36:07;99830.94;;;15.39;100.00
20696;BME280;10507;52.754;13.040;2023-03-31T07:38:40;99945.84;;;16.24;100.00
20696;BME280;10507;52.754;13.040;2023-03-31T07:41:09;99940.50;;;16.76;100.00
20696;BME280;10507;52.754;13.040;2023-03-31T07:43:40;99895.66;;;17.06;99.16
20696;BME280;10507;52.754;13.040;2023-03-31T07:46:14;99652.06;;;16.86;96.08
20696;BME280;10507;52.754;13.040;2023-03-31T07:48:42;99582.97;;;16.94;95.32
20696;BME280;10507;52.754;13.040;2023-03-31T07:51:12;98831.47;;;15.74;84.69
20696;BME280;10507;52.754;13.040;2023-03-31T07:53:40;98780.63;;;15.53;84.00
20696;BME280;10507;52.754;13.040;2023-03-31T07:56:08;98851.47;;;15.44;84.61
20696;BME280;10507;52.754;13.040;2023-03-31T07:58:36;98875.44;;;15.55;84.73
20696;BME280;10507;52.754;13.040;2023-03-31T08:01:06;98818.34;;;15.25;84.88
20696;BME280;10507;52.754;13.040;2023-03-31T08:03:37;98726.97;;;14.97;85.60
20696;BME280;10507;52.754;13.040;2023-03-31T08:06:05;98882.22;;;15.13;86.00
20696;BME280;10507;52.754;13.040;2023-03-31T08:08:33;98832.16;;;14.85;86.18
20696;BME280;10507;52.754;13.040;2023-03-31T08:11:03;98697.53;;;14.50;86.48
20696;BME280;10507;52.754;13.040;2023-03-31T08:13:31;98814.03;;;14.49;87.38
20696;BME280;10507;52.754;13.040;2023-03-31T08:15:59;98826.94;;;14.36;88.42
20696;BME280;10507;52.754;13.040;2023-03-31T08:18:29;98834.84;;;14.38;88.31
20696;BME280;10507;52.754;13.040;2023-03-31T08:20:57;98787.53;;;14.27;88.46
20696;BME280;10507;52.754;13.040;2023-03-31T08:23:25;98834.03;;;14.08;89.65
20696;BME280;10507;52.754;13.040;2023-03-31T08:25:53;98876.97;;;14.08;89.89
20696;BME280;10507;52.754;13.040;2023-03-31T08:28:20;98837.16;;;14.03;89.47
20696;BME280;10507;52.754;13.040;2023-03-31T08:30:48;98824.88;;;14.01;89.58
20696;BME280;10507;52.754;13.040;2023-03-31T08:33:17;98938.84;;;14.26;90.30
20696;BME280;10507;52.754;13.040;2023-03-31T08:35:46;98921.44;;;14.49;89.08
20696;BME280;10507;52.754;13.040;2023-03-31T08:38:14;98905.91;;;14.63;88.34
20696;BME280;10507;52.754;13.040;2023-03-31T08:40:42;98935.50;;;14.90;88.27
20696;BME280;10507;52.754;13.040;2023-03-31T08:43:16;98842.44;;;14.89;86.96
20696;BME280;10507;52.754;13.040;2023-03-31T08:45:48;98752.69;;;14.82;86.76
20696;BME280;10507;52.754;13.040;2023-03-31T08:48:22;98790.31;;;14.82;87.18
20696;BME280;10507;52.754;13.040;2023-03-31T08:51:16;98929.97;;;15.29;87.82
20696;BME280;10507;52.754;13.040;2023-03-31T08:53:50;98836.56;;;15.31;86.86
20696;BME280;10507;52.754;13.040;2023-03-31T08:56:21;98800.81;;;15.57;85.36
20696;BME280;10507;52.754;13.040;2023-03-31T08:58:50;98856.56;;;15.83;84.65
20696;BME280;10507;52.754;13.040;2023-03-31T09:01:23;98853.91;;;16.27;83.84
20696;BME280;10507;52.754;13.040;2023-03-31T09:04:10;98739.44;;;16.23;82.75
20696;BME280;10507;52.754;13.040;2023-03-31T09:06:49;98721.91;;;16.18;82.82
20696;BME280;10507;52.754;13.040;2023-03-31T09:09:27;98494.38;;;15.64;82.92
20696;BME280;10507;52.754;13.040;2023-03-31T09:12:02;98596.66;;;15.46;83.63
20696;BME280;10507;52.754;13.040;2023-03-31T09:14:37;98560.59;;;15.30;84.20
20696;BME280;10507;52.754;13.040;2023-03-31T09:17:13;98625.97;;;15.31;84.48
20696;BME280;10507;52.754;13.040;2023-03-31T09:19:47;98598.56;;;15.27;84.65
20696;BME280;10507;52.754;13.040;2023-03-31T09:22:21;98567.19;;;15.10;85.07
20696;BME280;10507;52.754;13.040;2023-03-31T09:24:55;98607.88;;;15.15;85.30
20696;BME280;10507;52.754;13.040;2023-03-31T09:27:26;98621.19;;;15.43;84.69
20696;BME280;10507;52.754;13.040;2023-03-31T09:29:59;98693.06;;;15.76;83.88
20696;BME280;10507;52.754;13.040;2023-03-31T09:32:31;98730.56;;;16.04;83.60
20696;BME280;10507;52.754;13.040;2023-03-31T09:35:01;98723.22;;;16.49;82.29
20696;BME280;10507;52.754;13.040;2023-03-31T09:37:40;98616.09;;;16.34;81.63
20696;BME280;10507;52.754;13.040;2023-03-31T09:40:15;98456.31;;;15.93;81.76
20696;BME280;10507;52.754;13.040;2023-03-31T09:42:44;98512.19;;;15.99;81.65
20696;BME280;10507;52.754;13.040;2023-03-31T09:45:14;98550.03;;;15.97;83.33
20696;BME280;10507;52.754;13.040;2023-03-31T09:47:45;98575.84;;;16.25;82.79
20696;BME280;10507;52.754;13.040;2023-03-31T09:50:14;98460.75;;;16.27;80.99
20696;BME280;10507;52.754;13.040;2023-03-31T09:52:48;98353.03;;;16.02;80.69
20696;BME280;10507;52.754;13.040;2023-03-31T09:55:20;98264.22;;;15.61;81.52
20696;BME280;10507;52.754;13.040;2023-03-31T09:58:05;98331.91;;;15.32;82.80
20696;BME280;10507;52.754;13.040;2023-03-31T10:00:34;98333.91;;;15.30;82.88
20696;BME280;10507;52.754;13.040;2023-03-31T10:03:03;98331.16;;;15.05;83.75
20696;BME280;10507;52.754;13.040;2023-03-31T10:05:35;98475.53;;;15.21;84.73
20696;BME280;10507;52.754;13.040;2023-03-31T10:08:19;98513.22;;;15.29;85.46
20696;BME280;10507;52.754;13.040;2023-03-31T10:10:49;98578.88;;;15.53;85.11
20696;BME280;10507;52.754;13.040;2023-03-31T10:13:19;98455.97;;;15.45;84.48
20696;BME280;10507;52.754;13.040;2023-03-31T10:15:51;98474.63;;;15.38;85.23
20696;BME280;10507;52.754;13.040;2023-03-31T10:18:19;98527.78;;;15.53;85.12
20696;BME280;10507;52.754;13.040;2023-03-31T10:20:50;98562.47;;;15.64;85.88
20696;BME280;10507;52.754;13.040;2023-03-31T10:23:24;98533.66;;;15.83;84.57
20696;BME280;10507;52.754;13.040;2023-03-31T10:25:53;98495.38;;;15.97;84.51
20696;BME280;10507;52.754;13.040;2023-03-31T10:28:22;98559.19;;;16.21;84.73
20696;BME280;10507;52.754;13.040;2023-03-31T10:30:51;98567.34;;;16.62;82.35
20696;BME280;10507;52.754;13.040;2023-03-31T10:33:23;98466.81;;;16.53;82.27
20696;BME280;10507;52.754;13.040;2023-03-31T10:35:54;98403.03;;;16.21;83.13
20696;BME280;10507;52.754;13.040;2023-03-31T10:38:26;98428.78;;;16.24;83.01
20696;BME280;10507;52.754;13.040;2023-03-31T10:40:58;98292.66;;;15.80;84.17
20696;BME280;10507;52.754;13.040;2023-03-31T10:43:28;98310.06;;;15.51;84.75
20696;BME280;10507;52.754;13.040;2023-03-31T10:45:58;98340.00;;;14.89;87.64
20696;BME280;10507;52.754;13.040;2023-03-31T10:48:28;98411.84;;;14.43;89.94
20696;BME280;10507;52.754;13.040;2023-03-31T10:50:58;98535.97;;;14.37;91.82
20696;BME280;10507;52.754;13.040;2023-03-31T10:53:28;98542.19;;;14.20;91.97
20696;BME280;10507;52.754;13.040;2023-03-31T10:56:04;98580.00;;;14.26;91.99
20696;BME280;10507;52.754;13.040;2023-03-31T10:58:42;98614.34;;;14.23;93.12
20696;BME280;10507;52.754;13.040;2023-03-31T11:01:38;98590.28;;;14.31;91.70
20696;BME280;10507;52.754;13.040;2023-03-31T11:04:37;98546.88;;;14.18;92.22
20696;BME280;10507;52.754;13.040;2023-03-31T11:07:15;98575.69;;;14.16;92.05
20696;BME280;10507;52.754;13.040;2023-03-31T11:09:54;98542.22;;;13.92;92.80
20696;BME280;10507;52.754;13.040;2023-03-31T11:12:29;98607.22;;;13.76;94.27
20696;BME280;10507;52.754;13.040;2023-03-31T11:15:12;98575.53;;;13.62;93.82
20696;BME280;10507;52.754;13.040;2023-03-31T11:17:53;98559.50;;;13.42;94.11
20696;BME280;10507;52.754;13.040;2023-03-31T11:20:27;98605.94;;;13.43;94.47
20696;BME280;10507;52.754;13.040;2023-03-31T11:23:01;98605.63;;;13.56;93.49
20696;BME280;10507;52.754;13.040;2023-03-31T11:25:37;98647.88;;;13.81;92.77
20696;BME280;10507;52.754;13.040;2023-03-31T11:31:04;98628.88;;;14.02;92.25
20696;BME280;10507;52.754;13.040;2023-03-31T11:33:45;98687.00;;;14.39;91.72
20696;BME280;10507;52.754;13.040;2023-03-31T11:36:25;98671.59;;;14.41;91.64
20696;BME280;10507;52.754;13.040;2023-03-31T11:39:06;98703.09;;;14.76;91.57
20696;BME280;10507;52.754;13.040;2023-03-31T11:41:39;98776.06;;;15.17;91.55
20696;BME280;10507;52.754;13.040;2023-03-31T11:44:10;98655.56;;;15.13;90.50
20696;BME280;10507;52.754;13.040;2023-03-31T11:46:41;98698.63;;;15.39;90.17
20696;BME280;10507;52.754;13.040;2023-03-31T11:49:15;98631.78;;;15.44;89.96
20696;BME280;10507;52.754;13.040;2023-03-31T11:51:48;98634.41;;;15.62;89.48
20696;BME280;10507;52.754;13.040;2023-03-31T11:54:24;98594.88;;;15.54;89.62
20696;BME280;10507;52.754;13.040;2023-03-31T11:56:57;98583.34;;;15.70;88.22
20696;BME280;10507;52.754;13.040;2023-03-31T11:59:30;98580.47;;;15.90;87.67
20696;BME280;10507;52.754;13.040;2023-03-31T12:02:03;98455.28;;;15.77;86.64
20696;BME280;10507;52.754;13.040;2023-03-31T12:04:39;98376.09;;;15.88;84.83
20696;BME280;10507;52.754;13.040;2023-03-31T12:07:19;98270.28;;;15.63;84.83
20696;BME280;10507;52.754;13.040;2023-03-31T12:09:53;98262.84;;;15.49;84.89
20696;BME280;10507;52.754;13.040;2023-03-31T12:12:31;98279.00;;;15.57;84.89
20696;BME280;10507;52.754;13.040;2023-03-31T12:15:07;98348.97;;;15.65;85.57
20696;BME280;10507;52.754;13.040;2023-03-31T12:17:40;98354.34;;;15.73;86.03
20696;BME280;10507;52.754;13.040;2023-03-31T12:20:13;98297.34;;;15.70;85.01
20696;BME280;10507;52.754;13.040;2023-03-31T12:22:43;98292.78;;;15.70;85.74
20696;BME280;10507;52.754;13.040;2023-03-31T12:25:12;98327.31;;;15.83;85.06
20696;BME280;10507;52.754;13.040;2023-03-31T12:27:43;98222.69;;;15.64;85.35
20696;BME280;10507;52.754;13.040;2023-03-31T12:30:15;98269.88;;;15.17;88.18
20696;BME280;10507;52.754;13.040;2023-03-31T12:32:51;98177.88;;;14.22;90.45
20696;BME280;10507;52.754;13.040;2023-03-31T12:35:22;98383.09;;;13.91;94.42
20696;BME280;10507;52.754;13.040;2023-03-31T12:38:02;98459.41;;;13.61;96.30
20696;BME280;10507;52.754;13.040;2023-03-31T12:40:41;98524.00;;;13.30;98.81
20696;BME280;10507;52.754;13.040;2023-03-31T12:43:36;98641.94;;;13.30;100.00
20696;BME280;10507;52.754;13.040;2023-03-31T12:46:19;98653.34;;;13.13;100.00
20696;BME280;10507;52.754;13.040;2023-03-31T12:49:00;98686.63;;;13.10;100.00
20696;BME280;10507;52.754;13.040;2023-03-31T12:51:49;98755.75;;;13.26;100.00
20696;BME280;10507;52.754;13.040;2023-03-31T12:54:42;98761.41;;;13.33;100.00
20696;BME280;10507;52.754;13.040;2023-03-31T12:57:19;98765.38;;;13.39;100.00
20696;BME280;10507;52.754;13.040;2023-03-31T13:02:44;98816.19;;;13.50;100.00
20696;BME280;10507;52.754;13.040;2023-03-31T13:05:45;98824.34;;;13.48;100.00
20696;BME280;10507;52.754;13.040;2023-03-31T13:08:49;98869.81;;;13.50;100.00
20696;BME280;10507;52.754;13.040;2023-03-31T13:11:19;98893.94;;;13.50;100.00
20696;BME280;10507;52.754;13.040;2023-03-31T13:13:58;98928.66;;;13.61;100.00
20696;BME280;10507;52.754;13.040;2023-03-31T13:16:28;98934.59;;;13.65;100.00
20696;BME280;10507;52.754;13.040;2023-03-31T13:18:58;98968.31;;;13.67;100.00
20696;BME280;10507;52.754;13.040;2023-03-31T13:21:26;98945.59;;;13.71;100.00
20696;BME280;10507;52.754;13.040;2023-03-31T13:23:59;98942.38;;;13.78;100.00
20696;BME280;10507;52.754;13.040;2023-03-31T13:26:38;98925.16;;;13.70;100.00
20696;BME280;10507;52.754;13.040;2023-03-31T13:29:19;98945.91;;;13.68;100.00